sensor_id;sensor_type;location;lat;lon;timestamp;P1;durP1;ratioP1;P2;durP2;ratioP2
6638;SDS011;3355;52.882;8.430;2022-11-20T00:04:19;9.30;;;6.03;;
6638;SDS011;3355;52.882;8.430;2022-11-20T00:06:48;12.90;;;6.60;;
6638;SDS011;3355;52.882;8.430;2022-11-20T00:09:16;8.87;;;6.27;;
6638;SDS011;3355;52.882;8.430;2022-11-20T00:11:45;10.37;;;7.10;;
6638;SDS011;3355;52.882;8.430;2022-11-20T00:14:12;11.63;;;7.70;;
6638;SDS011;3355;52.882;8.430;2022-11-20T00:16:40;8.93;;;6.57;;
6638;SDS011;3355;52.882;8.430;2022-11-20T00:19:07;9.33;;;6.40;;
6638;SDS011;3355;52.882;8.430;2022-11-20T00:21:36;10.33;;;7.73;;
6638;SDS011;3355;52.882;8.430;2022-11-20T00:24:04;10.87;;;6.90;;
6638;SDS011;3355;52.882;8.430;2022-11-20T00:26:31;11.47;;;7.73;;
6638;SDS011;3355;52.882;8.430;2022-11-20T00:28:58;11.33;;;7.20;;
6638;SDS011;3355;52.882;8.430;2022-11-20T00:31:26;11.00;;;8.13;;
6638;SDS011;3355;52.882;8.430;2022-11-20T00:33:53;10.73;;;8.17;;
6638;SDS011;3355;52.882;8.430;2022-11-20T00:36:20;10.03;;;7.43;;
6638;SDS011;3355;52.882;8.430;2022-11-20T00:38:52;10.07;;;7.27;;
6638;SDS011;3355;52.882;8.430;2022-11-20T00:41:21;9.33;;;6.70;;
6638;SDS011;3355;52.882;8.430;2022-11-20T00:43:51;12.50;;;8.00;;
6638;SDS011;3355;52.882;8.430;2022-11-20T00:46:21;11.47;;;8.20;;
6638;SDS011;3355;52.882;8.430;2022-11-20T00:48:50;11.07;;;7.87;;
6638;SDS011;3355;52.882;8.430;2022-11-20T00:51:18;9.23;;;7.00;;
6638;SDS011;3355;52.882;8.430;2022-11-20T00:53:47;12.17;;;8.13;;
6638;SDS011;3355;52.882;8.430;2022-11-20T00:56:18;14.70;;;8.30;;
6638;SDS011;3355;52.882;8.430;2022-11-20T00:58:47;12.50;;;8.20;;
6638;SDS011;3355;52.882;8.430;2022-11-20T01:01:17;11.13;;;8.03;;
6638;SDS011;3355;52.882;8.430;2022-11-20T01:03:45;11.33;;;8.77;;
6638;SDS011;3355;52.882;8.430;2022-11-20T01:06:14;10.13;;;7.83;;
6638;SDS011;3355;52.882;8.430;2022-11-20T01:08:43;11.50;;;7.87;;
6638;SDS011;3355;52.882;8.430;2022-11-20T01:11:12;17.13;;;8.17;;
6638;SDS011;3355;52.882;8.430;2022-11-20T01:13:42;11.53;;;8.03;;
6638;SDS011;3355;52.882;8.430;2022-11-20T01:16:11;14.37;;;9.30;;
6638;SDS011;3355;52.882;8.430;2022-11-20T01:18:41;12.03;;;8.50;;
6638;SDS011;3355;52.882;8.430;2022-11-20T01:21:10;15.03;;;8.53;;
6638;SDS011;3355;52.882;8.430;2022-11-20T01:23:39;9.90;;;7.70;;
6638;SDS011;3355;52.882;8.430;2022-11-20T01:26:08;11.93;;;8.10;;
6638;SDS011;3355;52.882;8.430;2022-11-20T01:28:37;10.90;;;7.50;;
6638;SDS011;3355;52.882;8.430;2022-11-20T01:31:14;12.90;;;8.20;;
6638;SDS011;3355;52.882;8.430;2022-11-20T01:33:43;13.03;;;7.20;;
6638;SDS011;3355;52.882;8.430;2022-11-20T01:36:12;11.27;;;9.13;;
6638;SDS011;3355;52.882;8.430;2022-11-20T01:38:40;11.53;;;8.80;;
6638;SDS011;3355;52.882;8.430;2022-11-20T01:41:08;10.40;;;8.47;;
6638;SDS011;3355;52.882;8.430;2022-11-20T01:43:57;9.70;;;6.97;;
6638;SDS011;3355;52.882;8.430;2022-11-20T01:46:26;13.30;;;8.80;;
6638;SDS011;3355;52.882;8.430;2022-11-20T01:48:54;12.03;;;9.23;;
6638;SDS011;3355;52.882;8.430;2022-11-20T01:51:25;14.00;;;9.10;;
6638;SDS011;3355;52.882;8.430;2022-11-20T01:53:57;12.53;;;9.00;;
6638;SDS011;3355;52.882;8.430;2022-11-20T01:56:27;12.50;;;9.10;;
6638;SDS011;3355;52.882;8.430;2022-11-20T01:58:56;11.93;;;8.67;;
6638;SDS011;3355;52.882;8.430;2022-11-20T02:01:37;10.77;;;8.07;;
6638;SDS011;3355;52.882;8.430;2022-11-20T02:04:04;15.90;;;9.23;;
6638;SDS011;3355;52.882;8.430;2022-11-20T02:06:32;13.30;;;9.17;;
6638;SDS011;3355;52.882;8.430;2022-11-20T02:09:02;11.07;;;8.40;;
6638;SDS011;3355;52.882;8.430;2022-11-20T02:11:29;12.93;;;9.00;;
6638;SDS011;3355;52.882;8.430;2022-11-20T02:13:56;10.73;;;9.03;;
6638;SDS011;3355;52.882;8.430;2022-11-20T02:16:23;11.63;;;7.87;;
6638;SDS011;3355;52.882;8.430;2022-11-20T02:18:53;14.33;;;9.00;;
6638;SDS011;3355;52.882;8.430;2022-11-20T02:21:23;13.60;;;10.10;;
6638;SDS011;3355;52.882;8.430;2022-11-20T02:24:04;14.00;;;9.73;;
6638;SDS011;3355;52.882;8.430;2022-11-20T02:26:33;14.50;;;9.73;;
6638;SDS011;3355;52.882;8.430;2022-11-20T02:29:03;14.40;;;9.73;;
6638;SDS011;3355;52.882;8.430;2022-11-20T02:31:33;12.50;;;7.90;;
6638;SDS011;3355;52.882;8.430;2022-11-20T02:34:02;12.00;;;8.63;;
6638;SDS011;3355;52.882;8.430;2022-11-20T02:36:29;12.03;;;8.57;;
6638;SDS011;3355;52.882;8.430;2022-11-20T02:38:58;9.83;;;7.37;;
6638;SDS011;3355;52.882;8.430;2022-11-20T02:41:31;11.07;;;8.90;;
6638;SDS011;3355;52.882;8.430;2022-11-20T02:43:58;13.00;;;8.67;;
6638;SDS011;3355;52.882;8.430;2022-11-20T02:46:25;10.47;;;8.10;;
6638;SDS011;3355;52.882;8.430;2022-11-20T02:48:52;11.70;;;7.90;;
6638;SDS011;3355;52.882;8.430;2022-11-20T02:51:18;12.83;;;8.30;;
6638;SDS011;3355;52.882;8.430;2022-11-20T02:53:45;10.70;;;7.57;;
6638;SDS011;3355;52.882;8.430;2022-11-20T02:56:11;11.63;;;7.53;;
6638;SDS011;3355;52.882;8.430;2022-11-20T02:58:39;10.07;;;7.47;;
6638;SDS011;3355;52.882;8.430;2022-11-20T03:01:06;9.20;;;7.30;;
6638;SDS011;3355;52.882;8.430;2022-11-20T03:03:32;13.43;;;8.63;;
6638;SDS011;3355;52.882;8.430;2022-11-20T03:05:59;12.20;;;7.60;;
6638;SDS011;3355;52.882;8.430;2022-11-20T03:08:26;12.10;;;7.73;;
6638;SDS011;3355;52.882;8.430;2022-11-20T03:10:53;8.97;;;7.47;;
6638;SDS011;3355;52.882;8.430;2022-11-20T03:13:20;8.37;;;7.17;;
6638;SDS011;3355;52.882;8.430;2022-11-20T03:15:48;9.87;;;8.03;;
6638;SDS011;3355;52.882;8.430;2022-11-20T03:18:14;10.37;;;7.17;;
6638;SDS011;3355;52.882;8.430;2022-11-20T03:20:41;11.27;;;7.47;;
6638;SDS011;3355;52.882;8.430;2022-11-20T03:23:07;9.93;;;7.70;;
6638;SDS011;3355;52.882;8.430;2022-11-20T07:02:53;10.77;;;5.50;;
6638;SDS011;3355;52.882;8.430;2022-11-20T07:05:23;8.60;;;6.23;;
6638;SDS011;3355;52.882;8.430;2022-11-20T07:07:49;9.77;;;5.37;;
6638;SDS011;3355;52.882;8.430;2022-11-20T07:10:16;7.73;;;5.63;;
6638;SDS011;3355;52.882;8.430;2022-11-20T07:12:48;6.33;;;5.00;;
6638;SDS011;3355;52.882;8.430;2022-11-20T07:15:15;7.07;;;5.10;;
6638;SDS011;3355;52.882;8.430;2022-11-20T07:17:43;8.70;;;5.73;;
6638;SDS011;3355;52.882;8.430;2022-11-20T07:22:42;12.80;;;5.97;;
6638;SDS011;3355;52.882;8.430;2022-11-20T07:25:09;7.70;;;5.17;;
6638;SDS011;3355;52.882;8.430;2022-11-20T07:27:37;10.20;;;6.17;;
6638;SDS011;3355;52.882;8.430;2022-11-20T07:30:05;10.23;;;7.37;;
6638;SDS011;3355;52.882;8.430;2022-11-20T07:32:33;7.37;;;5.87;;
6638;SDS011;3355;52.882;8.430;2022-11-20T07:35:00;9.00;;;6.43;;
6638;SDS011;3355;52.882;8.430;2022-11-20T07:37:29;7.67;;;6.50;;
6638;SDS011;3355;52.882;8.430;2022-11-20T07:43:26;11.60;;;6.23;;
6638;SDS011;3355;52.882;8.430;2022-11-20T07:45:54;8.23;;;6.03;;
6638;SDS011;3355;52.882;8.430;2022-11-20T07:48:21;11.50;;;5.77;;
6638;SDS011;3355;52.882;8.430;2022-11-20T07:50:49;9.97;;;6.80;;
6638;SDS011;3355;52.882;8.430;2022-11-20T07:53:23;8.67;;;6.90;;
6638;SDS011;3355;52.882;8.430;2022-11-20T07:56:06;11.77;;;7.30;;
6638;SDS011;3355;52.882;8.430;2022-11-20T07:58:53;8.40;;;6.60;;
6638;SDS011;3355;52.882;8.430;2022-11-20T08:01:31;11.00;;;8.13;;
6638;SDS011;3355;52.882;8.430;2022-11-20T08:03:57;10.77;;;7.87;;
6638;SDS011;3355;52.882;8.430;2022-11-20T08:06:24;10.63;;;7.50;;
6638;SDS011;3355;52.882;8.430;2022-11-20T08:08:54;12.77;;;7.07;;
6638;SDS011;3355;52.882;8.430;2022-11-20T08:11:21;10.60;;;7.90;;
6638;SDS011;3355;52.882;8.430;2022-11-20T08:14:05;11.00;;;7.87;;
6638;SDS011;3355;52.882;8.430;2022-11-20T08:16:38;11.97;;;8.23;;
6638;SDS011;3355;52.882;8.430;2022-11-20T08:19:06;9.50;;;7.50;;
6638;SDS011;3355;52.882;8.430;2022-11-20T08:21:33;11.60;;;8.90;;
6638;SDS011;3355;52.882;8.430;2022-11-20T08:24:01;11.43;;;7.97;;
6638;SDS011;3355;52.882;8.430;2022-11-20T08:26:28;21.93;;;8.43;;
6638;SDS011;3355;52.882;8.430;2022-11-20T08:28:55;8.27;;;6.60;;
6638;SDS011;3355;52.882;8.430;2022-11-20T08:31:22;11.53;;;6.80;;
6638;SDS011;3355;52.882;8.430;2022-11-20T08:33:50;10.50;;;6.77;;
6638;SDS011;3355;52.882;8.430;2022-11-20T08:36:18;10.23;;;7.17;;
6638;SDS011;3355;52.882;8.430;2022-11-20T08:38:46;9.87;;;7.20;;
6638;SDS011;3355;52.882;8.430;2022-11-20T08:41:17;9.77;;;6.77;;
6638;SDS011;3355;52.882;8.430;2022-11-20T08:43:51;11.60;;;7.20;;
6638;SDS011;3355;52.882;8.430;2022-11-20T08:46:18;11.80;;;7.20;;
6638;SDS011;3355;52.882;8.430;2022-11-20T08:48:45;10.10;;;7.47;;
6638;SDS011;3355;52.882;8.430;2022-11-20T08:51:12;10.50;;;7.70;;
6638;SDS011;3355;52.882;8.430;2022-11-20T08:53:39;8.90;;;6.60;;
6638;SDS011;3355;52.882;8.430;2022-11-20T08:56:05;12.80;;;7.87;;
6638;SDS011;3355;52.882;8.430;2022-11-20T08:58:34;11.03;;;7.70;;
6638;SDS011;3355;52.882;8.430;2022-11-20T09:01:01;8.00;;;6.90;;
6638;SDS011;3355;52.882;8.430;2022-11-20T09:03:27;10.57;;;7.07;;
6638;SDS011;3355;52.882;8.430;2022-11-20T09:05:56;8.63;;;6.40;;
6638;SDS011;3355;52.882;8.430;2022-11-20T09:08:24;8.43;;;6.40;;
6638;SDS011;3355;52.882;8.430;2022-11-20T09:10:51;8.77;;;7.30;;
6638;SDS011;3355;52.882;8.430;2022-11-20T09:13:18;8.63;;;6.60;;
6638;SDS011;3355;52.882;8.430;2022-11-20T09:15:48;10.17;;;7.37;;
6638;SDS011;3355;52.882;8.430;2022-11-20T09:18:21;11.70;;;7.63;;
6638;SDS011;3355;52.882;8.430;2022-11-20T09:20:50;9.20;;;6.40;;
6638;SDS011;3355;52.882;8.430;2022-11-20T09:23:23;9.13;;;6.50;;
6638;SDS011;3355;52.882;8.430;2022-11-20T09:25:50;10.53;;;7.37;;
6638;SDS011;3355;52.882;8.430;2022-11-20T09:28:17;11.73;;;7.40;;
6638;SDS011;3355;52.882;8.430;2022-11-20T09:30:52;9.27;;;6.60;;
6638;SDS011;3355;52.882;8.430;2022-11-20T09:33:22;9.40;;;6.60;;
6638;SDS011;3355;52.882;8.430;2022-11-20T09:35:49;8.40;;;6.37;;
6638;SDS011;3355;52.882;8.430;2022-11-20T09:38:18;12.20;;;7.03;;
6638;SDS011;3355;52.882;8.430;2022-11-20T09:40:45;9.60;;;6.50;;
6638;SDS011;3355;52.882;8.430;2022-11-20T09:43:17;10.93;;;6.90;;
6638;SDS011;3355;52.882;8.430;2022-11-20T09:45:53;15.43;;;7.00;;
6638;SDS011;3355;52.882;8.430;2022-11-20T09:48:30;10.00;;;6.70;;
6638;SDS011;3355;52.882;8.430;2022-11-20T09:51:05;9.13;;;6.63;;
6638;SDS011;3355;52.882;8.430;2022-11-20T09:53:44;10.43;;;6.60;;
6638;SDS011;3355;52.882;8.430;2022-11-20T09:56:15;10.83;;;6.40;;
6638;SDS011;3355;52.882;8.430;2022-11-20T09:58:44;9.33;;;6.27;;
6638;SDS011;3355;52.882;8.430;2022-11-20T10:01:15;8.03;;;6.93;;
6638;SDS011;3355;52.882;8.430;2022-11-20T10:03:45;9.50;;;6.30;;
6638;SDS011;3355;52.882;8.430;2022-11-20T10:06:18;8.70;;;5.97;;
6638;SDS011;3355;52.882;8.430;2022-11-20T10:08:51;9.10;;;6.67;;
6638;SDS011;3355;52.882;8.430;2022-11-20T10:11:30;9.37;;;6.23;;
6638;SDS011;3355;52.882;8.430;2022-11-20T10:14:07;8.87;;;6.40;;
6638;SDS011;3355;52.882;8.430;2022-11-20T10:16:41;10.60;;;6.90;;
6638;SDS011;3355;52.882;8.430;2022-11-20T10:19:17;6.70;;;5.20;;
6638;SDS011;3355;52.882;8.430;2022-11-20T10:21:55;8.03;;;5.73;;
6638;SDS011;3355;52.882;8.430;2022-11-20T10:27:21;10.27;;;6.40;;
6638;SDS011;3355;52.882;8.430;2022-11-20T10:30:08;7.20;;;5.90;;
6638;SDS011;3355;52.882;8.430;2022-11-20T10:32:38;10.00;;;7.13;;
6638;SDS011;3355;52.882;8.430;2022-11-20T10:35:15;7.50;;;6.20;;
6638;SDS011;3355;52.882;8.430;2022-11-20T10:37:47;6.30;;;5.20;;
6638;SDS011;3355;52.882;8.430;2022-11-20T10:40:21;7.90;;;5.80;;
6638;SDS011;3355;52.882;8.430;2022-11-20T10:42:50;7.97;;;5.80;;
6638;SDS011;3355;52.882;8.430;2022-11-20T10:45:33;7.93;;;5.73;;
6638;SDS011;3355;52.882;8.430;2022-11-20T10:48:12;8.30;;;5.80;;
6638;SDS011;3355;52.882;8.430;2022-11-20T10:50:47;9.10;;;5.70;;
6638;SDS011;3355;52.882;8.430;2022-11-20T10:53:22;7.83;;;5.53;;
6638;SDS011;3355;52.882;8.430;2022-11-20T10:56:00;8.00;;;5.63;;
6638;SDS011;3355;52.882;8.430;2022-11-20T10:58:36;7.67;;;5.37;;
6638;SDS011;3355;52.882;8.430;2022-11-20T11:01:13;8.27;;;5.03;;
6638;SDS011;3355;52.882;8.430;2022-11-20T11:03:45;7.27;;;5.27;;
6638;SDS011;3355;52.882;8.430;2022-11-20T11:06:12;8.40;;;5.47;;
6638;SDS011;3355;52.882;8.430;2022-11-20T11:08:43;7.43;;;6.13;;
6638;SDS011;3355;52.882;8.430;2022-11-20T11:11:15;8.77;;;6.00;;
6638;SDS011;3355;52.882;8.430;2022-11-20T11:13:46;6.50;;;5.30;;
6638;SDS011;3355;52.882;8.430;2022-11-20T11:16:19;6.80;;;5.07;;
6638;SDS011;3355;52.882;8.430;2022-11-20T11:18:48;7.60;;;5.57;;
6638;SDS011;3355;52.882;8.430;2022-11-20T11:21:19;7.33;;;5.70;;
6638;SDS011;3355;52.882;8.430;2022-11-20T11:23:48;8.47;;;5.60;;
6638;SDS011;3355;52.882;8.430;2022-11-20T11:26:24;8.27;;;6.27;;
6638;SDS011;3355;52.882;8.430;2022-11-20T11:28:53;6.60;;;5.27;;
6638;SDS011;3355;52.882;8.430;2022-11-20T11:31:24;8.30;;;5.43;;
6638;SDS011;3355;52.882;8.430;2022-11-20T11:34:02;8.10;;;5.80;;
6638;SDS011;3355;52.882;8.430;2022-11-20T11:36:30;7.97;;;5.83;;
6638;SDS011;3355;52.882;8.430;2022-11-20T11:38:57;6.73;;;5.20;;
6638;SDS011;3355;52.882;8.430;2022-11-20T11:41:24;7.10;;;5.17;;
6638;SDS011;3355;52.882;8.430;2022-11-20T11:43:54;6.57;;;4.70;;
6638;SDS011;3355;52.882;8.430;2022-11-20T11:46:39;6.43;;;5.23;;
6638;SDS011;3355;52.882;8.430;2022-11-20T11:49:16;6.97;;;5.33;;
6638;SDS011;3355;52.882;8.430;2022-11-20T11:51:50;8.53;;;6.07;;
6638;SDS011;3355;52.882;8.430;2022-11-20T11:54:28;6.43;;;5.63;;
6638;SDS011;3355;52.882;8.430;2022-11-20T11:56:58;10.97;;;5.67;;
6638;SDS011;3355;52.882;8.430;2022-11-20T11:59:28;6.17;;;4.90;;
6638;SDS011;3355;52.882;8.430;2022-11-20T12:01:59;9.47;;;5.57;;
6638;SDS011;3355;52.882;8.430;2022-11-20T12:04:36;8.17;;;5.80;;
6638;SDS011;3355;52.882;8.430;2022-11-20T12:07:10;7.80;;;5.13;;
6638;SDS011;3355;52.882;8.430;2022-11-20T12:09:41;8.10;;;5.40;;
6638;SDS011;3355;52.882;8.430;2022-11-20T12:12:13;6.93;;;5.07;;
6638;SDS011;3355;52.882;8.430;2022-11-20T12:14:44;6.80;;;5.10;;
6638;SDS011;3355;52.882;8.430;2022-11-20T12:17:15;8.33;;;5.80;;
6638;SDS011;3355;52.882;8.430;2022-11-20T12:19:44;6.40;;;5.27;;
6638;SDS011;3355;52.882;8.430;2022-11-20T12:22:13;8.50;;;5.77;;
6638;SDS011;3355;52.882;8.430;2022-11-20T12:24:49;7.90;;;5.60;;
6638;SDS011;3355;52.882;8.430;2022-11-20T12:27:38;6.77;;;4.70;;
6638;SDS011;3355;52.882;8.430;2022-11-20T12:30:18;5.80;;;4.93;;
6638;SDS011;3355;52.882;8.430;2022-11-20T12:35:47;5.87;;;4.97;;
6638;SDS011;3355;52.882;8.430;2022-11-20T12:38:29;7.23;;;4.77;;
6638;SDS011;3355;52.882;8.430;2022-11-20T12:41:05;10.13;;;5.37;;
6638;SDS011;3355;52.882;8.430;2022-11-20T12:43:41;7.90;;;5.70;;
6638;SDS011;3355;52.882;8.430;2022-11-20T12:46:30;6.93;;;5.37;;
6638;SDS011;3355;52.882;8.430;2022-11-20T12:49:08;7.00;;;5.00;;
6638;SDS011;3355;52.882;8.430;2022-11-20T12:51:51;6.63;;;4.70;;
6638;SDS011;3355;52.882;8.430;2022-11-20T12:54:26;8.07;;;5.20;;
6638;SDS011;3355;52.882;8.430;2022-11-20T12:57:03;7.70;;;5.40;;
6638;SDS011;3355;52.882;8.430;2022-11-20T12:59:37;6.93;;;5.00;;
6638;SDS011;3355;52.882;8.430;2022-11-20T13:02:19;7.33;;;5.00;;
6638;SDS011;3355;52.882;8.430;2022-11-20T13:05:03;8.93;;;6.80;;
6638;SDS011;3355;52.882;8.430;2022-11-20T13:07:35;7.77;;;6.00;;
6638;SDS011;3355;52.882;8.430;2022-11-20T13:10:02;7.90;;;5.27;;
6638;SDS011;3355;52.882;8.430;2022-11-20T13:12:31;7.80;;;5.93;;
6638;SDS011;3355;52.882;8.430;2022-11-20T13:15:04;8.83;;;5.60;;
6638;SDS011;3355;52.882;8.430;2022-11-20T13:17:37;6.70;;;5.40;;
6638;SDS011;3355;52.882;8.430;2022-11-20T13:20:12;6.93;;;5.53;;
6638;SDS011;3355;52.882;8.430;2022-11-20T13:22:45;8.90;;;6.60;;
6638;SDS011;3355;52.882;8.430;2022-11-20T13:25:21;8.07;;;4.40;;
6638;SDS011;3355;52.882;8.430;2022-11-20T13:27:49;6.97;;;5.00;;
6638;SDS011;3355;52.882;8.430;2022-11-20T13:30:29;8.90;;;5.93;;
6638;SDS011;3355;52.882;8.430;2022-11-20T13:32:57;6.27;;;5.13;;
6638;SDS011;3355;52.882;8.430;2022-11-20T13:35:30;7.47;;;6.07;;
6638;SDS011;3355;52.882;8.430;2022-11-20T13:40:55;7.80;;;5.87;;
6638;SDS011;3355;52.882;8.430;2022-11-20T13:43:26;8.73;;;6.50;;
6638;SDS011;3355;52.882;8.430;2022-11-20T13:46:00;6.27;;;5.17;;
6638;SDS011;3355;52.882;8.430;2022-11-20T13:48:30;9.27;;;5.90;;
6638;SDS011;3355;52.882;8.430;2022-11-20T13:51:06;8.87;;;6.07;;
6638;SDS011;3355;52.882;8.430;2022-11-20T13:56:32;7.40;;;6.10;;
6638;SDS011;3355;52.882;8.430;2022-11-20T14:09:24;10.70;;;6.90;;
6638;SDS011;3355;52.882;8.430;2022-11-20T14:11:54;10.07;;;7.20;;
6638;SDS011;3355;52.882;8.430;2022-11-20T14:14:21;7.83;;;6.20;;
6638;SDS011;3355;52.882;8.430;2022-11-20T14:16:48;8.70;;;7.30;;
6638;SDS011;3355;52.882;8.430;2022-11-20T14:19:26;8.63;;;6.10;;
6638;SDS011;3355;52.882;8.430;2022-11-20T14:22:06;9.90;;;6.47;;
6638;SDS011;3355;52.882;8.430;2022-11-20T14:24:34;8.43;;;5.97;;
6638;SDS011;3355;52.882;8.430;2022-11-20T14:27:02;8.60;;;6.20;;
6638;SDS011;3355;52.882;8.430;2022-11-20T14:29:29;9.70;;;7.13;;
6638;SDS011;3355;52.882;8.430;2022-11-20T14:32:00;8.93;;;6.57;;
6638;SDS011;3355;52.882;8.430;2022-11-20T14:34:27;8.07;;;6.07;;
6638;SDS011;3355;52.882;8.430;2022-11-20T14:36:56;8.23;;;6.23;;
6638;SDS011;3355;52.882;8.430;2022-11-20T14:39:25;8.40;;;6.20;;
6638;SDS011;3355;52.882;8.430;2022-11-20T14:41:54;9.10;;;7.10;;
6638;SDS011;3355;52.882;8.430;2022-11-20T14:44:26;9.53;;;6.73;;
6638;SDS011;3355;52.882;8.430;2022-11-20T14:46:54;8.70;;;6.90;;
6638;SDS011;3355;52.882;8.430;2022-11-20T14:49:21;7.43;;;6.23;;
6638;SDS011;3355;52.882;8.430;2022-11-20T14:51:58;8.73;;;5.90;;
6638;SDS011;3355;52.882;8.430;2022-11-20T14:54:25;9.90;;;7.40;;
6638;SDS011;3355;52.882;8.430;2022-11-20T14:56:53;10.20;;;7.73;;
6638;SDS011;3355;52.882;8.430;2022-11-20T14:59:23;10.40;;;7.50;;
6638;SDS011;3355;52.882;8.430;2022-11-20T15:01:54;17.07;;;11.70;;
6638;SDS011;3355;52.882;8.430;2022-11-20T15:04:21;12.33;;;8.87;;
6638;SDS011;3355;52.882;8.430;2022-11-20T15:06:49;8.90;;;6.07;;
6638;SDS011;3355;52.882;8.430;2022-11-20T15:09:16;11.70;;;6.90;;
6638;SDS011;3355;52.882;8.430;2022-11-20T15:11:50;9.10;;;6.33;;
6638;SDS011;3355;52.882;8.430;2022-11-20T15:14:19;8.83;;;6.07;;
6638;SDS011;3355;52.882;8.430;2022-11-20T15:16:47;9.93;;;7.80;;
6638;SDS011;3355;52.882;8.430;2022-11-20T15:19:16;20.43;;;8.40;;
6638;SDS011;3355;52.882;8.430;2022-11-20T15:21:43;10.40;;;8.47;;
6638;SDS011;3355;52.882;8.430;2022-11-20T15:24:10;11.20;;;7.53;;
6638;SDS011;3355;52.882;8.430;2022-11-20T15:26:37;12.40;;;8.90;;
6638;SDS011;3355;52.882;8.430;2022-11-20T15:29:05;16.43;;;9.33;;
6638;SDS011;3355;52.882;8.430;2022-11-20T15:31:33;14.93;;;10.20;;
6638;SDS011;3355;52.882;8.430;2022-11-20T15:34:01;11.20;;;7.80;;
6638;SDS011;3355;52.882;8.430;2022-11-20T15:36:27;9.43;;;7.27;;
6638;SDS011;3355;52.882;8.430;2022-11-20T15:38:54;12.10;;;7.20;;
6638;SDS011;3355;52.882;8.430;2022-11-20T15:41:20;16.47;;;10.03;;
6638;SDS011;3355;52.882;8.430;2022-11-20T15:43:47;10.20;;;7.93;;
6638;SDS011;3355;52.882;8.430;2022-11-20T15:46:15;14.57;;;10.17;;
6638;SDS011;3355;52.882;8.430;2022-11-20T15:48:43;22.13;;;15.80;;
6638;SDS011;3355;52.882;8.430;2022-11-20T15:51:14;13.00;;;11.10;;
6638;SDS011;3355;52.882;8.430;2022-11-20T15:53:46;10.83;;;8.70;;
6638;SDS011;3355;52.882;8.430;2022-11-20T15:56:13;13.13;;;10.17;;
6638;SDS011;3355;52.882;8.430;2022-11-20T15:58:40;12.43;;;10.07;;
6638;SDS011;3355;52.882;8.430;2022-11-20T16:01:09;11.80;;;8.73;;
6638;SDS011;3355;52.882;8.430;2022-11-20T16:03:36;12.77;;;9.33;;
6638;SDS011;3355;52.882;8.430;2022-11-20T16:06:03;11.23;;;8.23;;
6638;SDS011;3355;52.882;8.430;2022-11-20T16:08:31;9.83;;;7.50;;
6638;SDS011;3355;52.882;8.430;2022-11-20T16:10:57;10.83;;;8.20;;
6638;SDS011;3355;52.882;8.430;2022-11-20T16:13:24;15.40;;;9.00;;
6638;SDS011;3355;52.882;8.430;2022-11-20T16:16:11;11.00;;;8.50;;
6638;SDS011;3355;52.882;8.430;2022-11-20T16:18:45;12.53;;;10.40;;
6638;SDS011;3355;52.882;8.430;2022-11-20T16:21:11;13.40;;;9.70;;
6638;SDS011;3355;52.882;8.430;2022-11-20T16:23:40;15.80;;;9.10;;
6638;SDS011;3355;52.882;8.430;2022-11-20T16:26:10;12.50;;;8.63;;
6638;SDS011;3355;52.882;8.430;2022-11-20T16:28:37;12.73;;;9.37;;
6638;SDS011;3355;52.882;8.430;2022-11-20T16:31:07;11.60;;;7.80;;
6638;SDS011;3355;52.882;8.430;2022-11-20T16:33:35;10.90;;;8.00;;
6638;SDS011;3355;52.882;8.430;2022-11-20T16:36:05;11.40;;;8.43;;
6638;SDS011;3355;52.882;8.430;2022-11-20T16:38:33;11.23;;;8.07;;
6638;SDS011;3355;52.882;8.430;2022-11-20T16:41:01;11.17;;;7.40;;
6638;SDS011;3355;52.882;8.430;2022-11-20T16:43:27;11.23;;;7.63;;
6638;SDS011;3355;52.882;8.430;2022-11-20T16:45:54;11.70;;;8.33;;
6638;SDS011;3355;52.882;8.430;2022-11-20T16:48:23;11.10;;;8.57;;
6638;SDS011;3355;52.882;8.430;2022-11-20T16:50:50;12.43;;;7.80;;
6638;SDS011;3355;52.882;8.430;2022-11-20T16:53:18;9.90;;;6.63;;
6638;SDS011;3355;52.882;8.430;2022-11-20T16:55:45;8.60;;;7.10;;
6638;SDS011;3355;52.882;8.430;2022-11-20T16:58:13;10.53;;;7.57;;
6638;SDS011;3355;52.882;8.430;2022-11-20T17:00:40;8.67;;;6.70;;
6638;SDS011;3355;52.882;8.430;2022-11-20T17:03:07;13.10;;;8.17;;
6638;SDS011;3355;52.882;8.430;2022-11-20T17:05:34;8.90;;;7.03;;
6638;SDS011;3355;52.882;8.430;2022-11-20T17:08:00;11.73;;;8.40;;
6638;SDS011;3355;52.882;8.430;2022-11-20T17:10:27;16.73;;;7.60;;
6638;SDS011;3355;52.882;8.430;2022-11-20T17:12:53;11.03;;;8.30;;
6638;SDS011;3355;52.882;8.430;2022-11-20T17:15:21;13.83;;;8.20;;
6638;SDS011;3355;52.882;8.430;2022-11-20T17:17:48;10.57;;;7.70;;
6638;SDS011;3355;52.882;8.430;2022-11-20T17:20:14;12.50;;;8.60;;
6638;SDS011;3355;52.882;8.430;2022-11-20T17:22:41;13.73;;;9.37;;
6638;SDS011;3355;52.882;8.430;2022-11-20T17:25:07;12.80;;;8.93;;
6638;SDS011;3355;52.882;8.430;2022-11-20T17:27:34;14.00;;;9.23;;
6638;SDS011;3355;52.882;8.430;2022-11-20T17:30:01;13.67;;;9.33;;
6638;SDS011;3355;52.882;8.430;2022-11-20T17:32:28;12.30;;;9.10;;
6638;SDS011;3355;52.882;8.430;2022-11-20T17:34:55;13.83;;;9.17;;
6638;SDS011;3355;52.882;8.430;2022-11-20T17:37:22;13.47;;;9.60;;
6638;SDS011;3355;52.882;8.430;2022-11-20T17:39:49;12.77;;;9.27;;
6638;SDS011;3355;52.882;8.430;2022-11-20T17:42:15;15.87;;;10.50;;
6638;SDS011;3355;52.882;8.430;2022-11-20T17:45:00;10.73;;;8.30;;
6638;SDS011;3355;52.882;8.430;2022-11-20T17:47:28;12.27;;;10.13;;
6638;SDS011;3355;52.882;8.430;2022-11-20T17:49:55;13.50;;;10.77;;
6638;SDS011;3355;52.882;8.430;2022-11-20T17:52:21;13.70;;;10.63;;
6638;SDS011;3355;52.882;8.430;2022-11-20T17:54:58;17.97;;;12.77;;
6638;SDS011;3355;52.882;8.430;2022-11-20T17:57:48;17.37;;;13.83;;
6638;SDS011;3355;52.882;8.430;2022-11-20T18:00:18;15.33;;;11.43;;
6638;SDS011;3355;52.882;8.430;2022-11-20T18:03:23;15.73;;;11.40;;
6638;SDS011;3355;52.882;8.430;2022-11-20T18:05:50;17.37;;;13.10;;
6638;SDS011;3355;52.882;8.430;2022-11-20T18:08:16;14.80;;;12.37;;
6638;SDS011;3355;52.882;8.430;2022-11-20T18:10:43;16.90;;;12.17;;
6638;SDS011;3355;52.882;8.430;2022-11-20T18:13:09;15.30;;;11.30;;
6638;SDS011;3355;52.882;8.430;2022-11-20T18:15:36;15.53;;;11.83;;
6638;SDS011;3355;52.882;8.430;2022-11-20T18:18:03;15.27;;;11.27;;
6638;SDS011;3355;52.882;8.430;2022-11-20T18:20:31;12.60;;;10.53;;
6638;SDS011;3355;52.882;8.430;2022-11-20T18:22:57;14.40;;;9.57;;
6638;SDS011;3355;52.882;8.430;2022-11-20T18:25:32;14.13;;;11.50;;
6638;SDS011;3355;52.882;8.430;2022-11-20T18:27:58;12.00;;;9.67;;
6638;SDS011;3355;52.882;8.430;2022-11-20T18:30:27;14.53;;;11.30;;
6638;SDS011;3355;52.882;8.430;2022-11-20T18:33:09;11.63;;;9.80;;
6638;SDS011;3355;52.882;8.430;2022-11-20T18:35:36;13.50;;;10.53;;
6638;SDS011;3355;52.882;8.430;2022-11-20T18:38:06;17.50;;;11.70;;
6638;SDS011;3355;52.882;8.430;2022-11-20T18:40:33;15.87;;;12.60;;
6638;SDS011;3355;52.882;8.430;2022-11-20T18:43:00;13.10;;;9.90;;
6638;SDS011;3355;52.882;8.430;2022-11-20T18:45:43;12.07;;;9.80;;
6638;SDS011;3355;52.882;8.430;2022-11-20T18:48:10;10.90;;;9.30;;
6638;SDS011;3355;52.882;8.430;2022-11-20T18:50:38;14.33;;;11.30;;
6638;SDS011;3355;52.882;8.430;2022-11-20T18:53:04;12.23;;;9.67;;
6638;SDS011;3355;52.882;8.430;2022-11-20T18:55:31;13.90;;;9.70;;
6638;SDS011;3355;52.882;8.430;2022-11-20T18:57:58;14.00;;;10.13;;
6638;SDS011;3355;52.882;8.430;2022-11-20T19:00:24;14.37;;;9.40;;
6638;SDS011;3355;52.882;8.430;2022-11-20T19:02:51;12.37;;;9.73;;
6638;SDS011;3355;52.882;8.430;2022-11-20T19:05:19;13.70;;;9.37;;
6638;SDS011;3355;52.882;8.430;2022-11-20T19:07:46;13.23;;;9.73;;
6638;SDS011;3355;52.882;8.430;2022-11-20T19:10:15;12.50;;;10.00;;
6638;SDS011;3355;52.882;8.430;2022-11-20T19:12:44;14.30;;;9.67;;
6638;SDS011;3355;52.882;8.430;2022-11-20T19:15:10;13.03;;;8.97;;
6638;SDS011;3355;52.882;8.430;2022-11-20T19:17:37;13.10;;;9.70;;
6638;SDS011;3355;52.882;8.430;2022-11-20T19:20:03;14.47;;;10.33;;
6638;SDS011;3355;52.882;8.430;2022-11-20T19:22:30;12.83;;;9.87;;
6638;SDS011;3355;52.882;8.430;2022-11-20T19:24:58;14.43;;;9.97;;
6638;SDS011;3355;52.882;8.430;2022-11-20T19:27:25;13.07;;;9.03;;
6638;SDS011;3355;52.882;8.430;2022-11-20T19:29:51;16.17;;;10.63;;
6638;SDS011;3355;52.882;8.430;2022-11-20T19:32:21;13.73;;;9.70;;